createdAt,value
2022-12-07T00:01:39.238Z,10.60
2022-12-07T00:04:07.341Z,8.07
2022-12-07T00:06:34.516Z,11.48
2022-12-07T00:09:01.805Z,10.40
2022-12-07T00:11:29.013Z,8.77
2022-12-07T00:13:57.287Z,9.93
2022-12-07T00:16:25.640Z,9.13
2022-12-07T00:18:52.836Z,9.15
2022-12-07T00:21:21.838Z,10.82
2022-12-07T00:23:49.806Z,7.70
2022-12-07T00:26:18.866Z,8.73
2022-12-07T00:28:50.137Z,10.43
2022-12-07T00:31:18.803Z,11.65
2022-12-07T00:33:46.322Z,8.93
2022-12-07T00:36:15.614Z,7.60
2022-12-07T00:38:43.165Z,7.40
2022-12-07T00:41:20.823Z,8.52
2022-12-07T00:43:48.551Z,10.30
2022-12-07T00:46:16.690Z,9.45
2022-12-07T00:48:44.070Z,7.10
2022-12-07T00:51:12.621Z,10.35
2022-12-07T00:53:41.961Z,8.30
2022-12-07T00:56:10.842Z,10.23
2022-12-07T00:58:38.096Z,5.90
2022-12-07T01:01:06.152Z,8.80
2022-12-07T01:03:33.658Z,9.38
2022-12-07T01:06:01.101Z,9.48
2022-12-07T01:08:28.610Z,9.02
2022-12-07T01:10:59.980Z,7.25
2022-12-07T01:13:27.200Z,10.48
2022-12-07T01:15:58.014Z,6.80
2022-12-07T01:18:25.248Z,10.57
2022-12-07T01:21:01.644Z,11.50
2022-12-07T01:23:28.877Z,9.93
2022-12-07T01:25:56.992Z,7.13
2022-12-07T01:28:24.336Z,11.88
2022-12-07T01:30:58.551Z,10.60
2022-12-07T01:33:25.983Z,9.63
2022-12-07T01:35:53.203Z,8.25
2022-12-07T01:38:20.320Z,9.73
2022-12-07T01:40:47.508Z,5.65
2022-12-07T01:43:19.303Z,9.55
2022-12-07T01:45:47.024Z,6.43
2022-12-07T01:48:16.028Z,10.57
2022-12-07T01:50:44.378Z,10.15
2022-12-07T01:53:12.123Z,11.02
2022-12-07T01:55:40.901Z,9.18
2022-12-07T01:58:08.506Z,10.95
2022-12-07T02:00:35.811Z,7.20
2022-12-07T02:03:11.752Z,8.18
2022-12-07T02:05:40.072Z,11.52
2022-12-07T02:08:07.629Z,6.53
2022-12-07T02:10:35.092Z,8.05
2022-12-07T02:13:11.899Z,6.78
2022-12-07T02:16:23.980Z,6.63
2022-12-07T02:19:42.102Z,6.18
2022-12-07T02:22:43.934Z,8.52
2022-12-07T02:25:14.165Z,9.20
2022-12-07T02:27:49.131Z,7.55
2022-12-07T02:30:22.801Z,7.53
2022-12-07T02:32:49.853Z,9.23
2022-12-07T02:35:21.699Z,5.90
2022-12-07T02:38:07.126Z,9.45
2022-12-07T02:40:34.279Z,8.48
2022-12-07T02:43:08.481Z,4.90
2022-12-07T02:45:36.674Z,6.15
2022-12-07T02:48:04.169Z,9.52
2022-12-07T02:50:31.318Z,7.93
2022-12-07T02:52:58.506Z,4.95
2022-12-07T02:55:30.368Z,7.13
2022-12-07T02:58:07.336Z,8.35
2022-12-07T03:00:39.703Z,8.55
2022-12-07T03:03:11.992Z,6.30
2022-12-07T03:05:51.498Z,9.93
2022-12-07T03:08:38.901Z,5.07
2022-12-07T03:11:08.143Z,6.53
2022-12-07T03:13:41.545Z,10.20
2022-12-07T03:19:01.385Z,9.65
2022-12-07T03:21:31.015Z,5.72
2022-12-07T03:24:00.260Z,8.52
2022-12-07T03:26:32.434Z,2.80
2022-12-07T03:29:01.692Z,5.55
2022-12-07T03:31:33.306Z,7.25
2022-12-07T03:34:00.479Z,3.63
2022-12-07T03:36:30.893Z,5.40
2022-12-07T03:39:01.133Z,5.60
2022-12-07T03:41:33.114Z,6.65
2022-12-07T03:44:00.306Z,6.88
2022-12-07T03:46:38.797Z,8.07
2022-12-07T03:49:15.082Z,7.25
2022-12-07T03:51:45.208Z,6.72
2022-12-07T03:54:15.412Z,4.35
2022-12-07T03:56:43.866Z,6.03
2022-12-07T03:59:11.473Z,6.53
2022-12-07T04:01:38.778Z,9.40
2022-12-07T04:04:06.005Z,5.63
2022-12-07T04:06:33.223Z,6.95
2022-12-07T04:09:00.334Z,5.75
2022-12-07T04:11:27.543Z,7.05
2022-12-07T04:14:13.207Z,6.05
2022-12-07T04:16:44.449Z,9.57
2022-12-07T04:19:12.215Z,5.05
2022-12-07T04:21:39.284Z,6.63
2022-12-07T04:24:06.503Z,3.97
2022-12-07T04:26:33.846Z,3.72
2022-12-07T04:29:06.116Z,8.38
2022-12-07T04:31:34.658Z,8.10
2022-12-07T04:34:02.007Z,5.90
2022-12-07T04:36:29.294Z,4.75
2022-12-07T04:38:56.982Z,4.18
2022-12-07T04:41:30.675Z,4.13
2022-12-07T04:43:58.750Z,6.85
2022-12-07T04:46:26.909Z,4.35
2022-12-07T04:48:55.247Z,8.85
2022-12-07T04:51:23.623Z,4.55
2022-12-07T04:53:51.193Z,3.67
2022-12-07T04:56:18.765Z,8.98
2022-12-07T04:58:47.182Z,5.78
2022-12-07T05:01:14.673Z,6.10
2022-12-07T05:03:41.910Z,2.42
2022-12-07T05:06:13.444Z,8.05
2022-12-07T05:08:41.007Z,4.70
2022-12-07T05:11:08.285Z,3.50
2022-12-07T05:13:35.626Z,5.65
2022-12-07T05:16:02.921Z,4.63
2022-12-07T05:18:30.156Z,3.35
2022-12-07T05:20:57.380Z,8.43
2022-12-07T05:23:24.496Z,5.15
2022-12-07T05:25:51.821Z,5.10
2022-12-07T05:28:18.972Z,4.50
2022-12-07T05:30:46.202Z,5.38
2022-12-07T05:33:13.349Z,4.72
2022-12-07T05:35:41.443Z,8.38
2022-12-07T05:38:08.579Z,9.05
2022-12-07T05:40:35.817Z,7.75
2022-12-07T05:43:04.724Z,8.05
2022-12-07T05:45:32.362Z,6.78
2022-12-07T05:47:59.532Z,7.00
2022-12-07T05:50:26.853Z,10.38
2022-12-07T05:53:01.037Z,8.27
2022-12-07T05:55:28.332Z,10.75
2022-12-07T05:58:14.123Z,9.80
2022-12-07T06:00:41.277Z,10.05
2022-12-07T06:03:08.544Z,10.65
2022-12-07T06:05:35.768Z,11.98
2022-12-07T06:08:06.103Z,8.02
2022-12-07T06:10:33.454Z,4.38
2022-12-07T06:13:00.617Z,7.65
2022-12-07T06:15:27.842Z,11.82
2022-12-07T06:17:54.928Z,6.93
2022-12-07T06:22:48.597Z,5.07
2022-12-07T06:25:15.855Z,7.05
2022-12-07T06:27:43.085Z,7.22
2022-12-07T06:30:10.475Z,5.72
2022-12-07T06:32:38.280Z,6.95
2022-12-07T06:35:05.809Z,5.28
2022-12-07T06:37:32.868Z,4.95
2022-12-07T06:42:27.046Z,5.38
2022-12-07T06:44:54.275Z,10.82
2022-12-07T06:50:09.115Z,4.65
2022-12-07T06:52:36.363Z,6.95
2022-12-07T06:55:03.528Z,9.32
2022-12-07T06:57:30.748Z,4.78
2022-12-07T06:59:57.860Z,6.45
2022-12-07T07:02:25.041Z,6.03
2022-12-07T07:04:52.310Z,7.68
2022-12-07T07:07:19.514Z,5.70
2022-12-07T07:09:46.649Z,5.18
2022-12-07T07:12:13.859Z,3.08
2022-12-07T07:14:41.101Z,11.48
2022-12-07T07:17:08.515Z,4.93
2022-12-07T07:19:35.979Z,4.43
2022-12-07T07:22:03.555Z,4.68
2022-12-07T07:24:30.768Z,7.05
2022-12-07T07:26:58.008Z,6.18
2022-12-07T07:29:25.249Z,4.25
2022-12-07T07:31:52.455Z,5.90
2022-12-07T07:34:19.787Z,3.92
2022-12-07T07:36:46.924Z,6.57
2022-12-07T07:41:41.024Z,6.88
2022-12-07T07:44:13.825Z,4.82
2022-12-07T07:46:41.139Z,8.00
2022-12-07T07:49:08.400Z,6.45
2022-12-07T07:51:35.473Z,7.60
2022-12-07T07:56:29.775Z,7.53
2022-12-07T07:58:57.009Z,11.02
2022-12-07T08:01:24.336Z,10.60
2022-12-07T08:03:51.799Z,11.48
2022-12-07T08:06:18.956Z,8.57
2022-12-07T08:08:46.112Z,7.07
2022-12-07T08:11:13.445Z,7.85
2022-12-07T08:13:40.682Z,7.00
2022-12-07T08:16:09.621Z,10.95
2022-12-07T08:18:37.765Z,8.77
2022-12-07T08:21:05.068Z,5.07
2022-12-07T08:23:39.503Z,7.82
2022-12-07T08:26:10.978Z,5.30
2022-12-07T08:28:38.777Z,8.75
2022-12-07T08:31:08.112Z,5.82
2022-12-07T08:33:35.956Z,7.45
2022-12-07T08:36:07.696Z,4.45
2022-12-07T08:38:38.785Z,5.25
2022-12-07T08:41:06.078Z,4.28
2022-12-07T08:43:33.326Z,4.68
2022-12-07T08:46:21.584Z,6.05
2022-12-07T08:48:54.444Z,6.35
2022-12-07T08:51:22.908Z,4.97
2022-12-07T08:53:50.936Z,3.67
2022-12-07T08:56:18.509Z,3.75
2022-12-07T08:58:46.030Z,7.20
2022-12-07T09:01:13.186Z,5.57
2022-12-07T09:03:40.968Z,7.05
2022-12-07T09:06:09.420Z,2.20
2022-12-07T09:08:38.307Z,4.95
2022-12-07T09:11:05.540Z,6.43
2022-12-07T09:13:32.673Z,4.85
2022-12-07T09:15:59.927Z,6.38
2022-12-07T09:18:27.095Z,7.50
2022-12-07T09:20:54.567Z,3.72
2022-12-07T09:23:21.858Z,5.45
2022-12-07T09:25:49.008Z,6.55
2022-12-07T09:28:16.313Z,7.07
2022-12-07T09:31:21.385Z,3.47
2022-12-07T09:33:37.372Z,5.90
2022-12-07T09:36:05.107Z,7.18
2022-12-07T09:38:33.679Z,5.88
2022-12-07T09:41:05.735Z,5.07
2022-12-07T09:43:32.961Z,7.93
2022-12-07T09:46:00.195Z,3.60
2022-12-07T09:48:37.371Z,7.75
2022-12-07T09:51:05.573Z,4.20
2022-12-07T09:53:35.920Z,9.05
2022-12-07T09:56:03.489Z,5.75
2022-12-07T09:58:31.844Z,5.25
2022-12-07T10:01:01.272Z,5.70
2022-12-07T10:03:29.332Z,2.88
2022-12-07T10:05:57.026Z,4.60
2022-12-07T10:08:24.327Z,6.32
2022-12-07T10:10:56.732Z,2.65
2022-12-07T10:13:35.714Z,9.18
2022-12-07T10:16:06.826Z,5.57
2022-12-07T10:18:37.880Z,8.48
2022-12-07T10:21:25.115Z,7.03
2022-12-07T10:24:21.458Z,4.93
2022-12-07T10:26:48.592Z,7.93
2022-12-07T10:29:15.949Z,8.32
2022-12-07T10:31:43.840Z,7.15
2022-12-07T10:34:24.970Z,9.40
2022-12-07T10:36:52.655Z,9.30
2022-12-07T10:39:21.129Z,6.00
2022-12-07T10:41:55.047Z,9.25
2022-12-07T10:44:23.364Z,6.97
2022-12-07T10:46:56.347Z,10.38
2022-12-07T10:49:23.472Z,8.63
2022-12-07T10:52:00.906Z,6.68
2022-12-07T10:54:35.378Z,7.63
2022-12-07T10:57:08.193Z,8.00
2022-12-07T10:59:51.406Z,5.80
2022-12-07T11:02:27.374Z,8.43
2022-12-07T11:04:57.724Z,5.20
2022-12-07T11:07:34.097Z,6.68
2022-12-07T11:10:10.112Z,8.93
2022-12-07T11:12:37.734Z,6.10
2022-12-07T11:15:23.294Z,5.13
2022-12-07T11:18:13.368Z,8.95
2022-12-07T11:20:52.466Z,5.47
2022-12-07T11:23:37.944Z,4.82
2022-12-07T11:26:08.269Z,6.65
2022-12-07T11:28:35.507Z,5.68
2022-12-07T11:31:09.037Z,3.65
2022-12-07T11:33:46.140Z,5.95
2022-12-07T11:36:13.271Z,6.68
2022-12-07T11:38:45.420Z,9.98
2022-12-07T11:41:16.734Z,6.40
2022-12-07T11:44:06.731Z,3.05
2022-12-07T11:46:54.137Z,7.15
2022-12-07T11:49:27.358Z,5.80
2022-12-07T11:51:56.730Z,9.60
2022-12-07T11:54:28.049Z,6.32
2022-12-07T11:56:57.495Z,11.18
2022-12-07T11:59:28.410Z,9.98
2022-12-07T12:01:58.086Z,7.45
2022-12-07T12:04:31.380Z,7.82
2022-12-07T12:06:58.658Z,6.22
2022-12-07T12:15:15.525Z,4.72
2022-12-07T12:17:58.054Z,3.83
2022-12-07T12:20:25.285Z,3.08
2022-12-07T12:22:55.598Z,6.88
2022-12-07T12:25:22.858Z,6.03
2022-12-07T12:27:50.750Z,4.45
2022-12-07T12:30:33.215Z,3.80
2022-12-07T12:33:05.084Z,5.13
2022-12-07T12:35:37.426Z,6.15
2022-12-07T12:38:36.777Z,4.07
2022-12-07T12:41:04.421Z,3.47
2022-12-07T12:43:46.682Z,4.93
2022-12-07T12:46:35.953Z,6.55
2022-12-07T12:49:21.453Z,3.35
2022-12-07T12:51:53.381Z,3.75
2022-12-07T12:54:20.440Z,5.38
2022-12-07T12:56:50.555Z,4.32
2022-12-07T12:59:24.060Z,5.65
2022-12-07T13:01:53.248Z,3.45
2022-12-07T13:04:24.960Z,2.17
2022-12-07T13:06:52.445Z,5.03
2022-12-07T13:09:22.702Z,3.63
2022-12-07T13:11:50.361Z,1.77
2022-12-07T13:14:42.059Z,6.40
2022-12-07T13:17:10.484Z,1.77
2022-12-07T13:19:40.859Z,2.30
2022-12-07T13:22:32.530Z,1.25
2022-12-07T13:25:04.073Z,2.13
2022-12-07T13:27:31.940Z,2.58
2022-12-07T13:29:59.833Z,3.72
2022-12-07T13:32:28.628Z,2.75
2022-12-07T13:34:55.932Z,3.63
2022-12-07T13:37:28.008Z,5.05
2022-12-07T13:39:56.837Z,2.53
2022-12-07T13:42:27.238Z,4.68
2022-12-07T13:44:54.884Z,6.38
2022-12-07T13:47:33.347Z,6.00
2022-12-07T13:50:00.640Z,4.00
2022-12-07T13:52:29.585Z,4.43
2022-12-07T13:54:56.678Z,5.10
2022-12-07T13:57:24.241Z,3.90
2022-12-07T13:59:51.540Z,2.38
2022-12-07T14:02:23.847Z,7.38
2022-12-07T14:04:52.613Z,4.65
2022-12-07T14:07:22.039Z,3.40
2022-12-07T14:10:00.234Z,7.88
2022-12-07T14:12:28.274Z,6.53
2022-12-07T14:14:55.683Z,7.70
2022-12-07T14:17:23.997Z,6.03
2022-12-07T14:19:53.305Z,5.65
2022-12-07T14:22:39.970Z,5.20
2022-12-07T14:25:07.041Z,2.47
2022-12-07T14:27:35.298Z,2.88
2022-12-07T14:30:03.439Z,7.57
2022-12-07T14:32:31.858Z,5.00
2022-12-07T14:35:12.500Z,5.55
2022-12-07T14:37:40.789Z,6.45
2022-12-07T14:40:08.481Z,5.38
2022-12-07T14:42:36.241Z,5.47
2022-12-07T14:45:03.742Z,5.07
2022-12-07T14:50:20.282Z,4.65
2022-12-07T14:55:43.368Z,5.60
2022-12-07T14:58:15.257Z,4.55
2022-12-07T15:00:42.406Z,5.68
2022-12-07T15:03:09.608Z,4.47
2022-12-07T15:05:37.937Z,4.22
2022-12-07T15:08:05.323Z,6.97
2022-12-07T15:10:33.638Z,3.35
2022-12-07T15:13:21.623Z,3.63
2022-12-07T15:15:49.703Z,3.17
2022-12-07T15:18:16.924Z,1.98
2022-12-07T15:20:44.035Z,2.03
2022-12-07T15:23:11.715Z,5.10
2022-12-07T15:25:41.692Z,4.03
2022-12-07T15:28:08.856Z,4.43
2022-12-07T15:30:36.208Z,3.28
2022-12-07T15:33:03.347Z,5.70
2022-12-07T15:35:30.441Z,3.35
2022-12-07T15:37:57.564Z,5.53
2022-12-07T15:40:24.779Z,7.15
2022-12-07T15:42:52.073Z,5.38
2022-12-07T15:45:19.378Z,7.22
2022-12-07T15:48:26.061Z,3.25
2022-12-07T15:50:33.708Z,4.38
2022-12-07T15:53:00.868Z,9.63
2022-12-07T15:55:28.114Z,8.07
2022-12-07T15:57:55.282Z,9.07
2022-12-07T16:00:22.578Z,3.97
2022-12-07T16:02:49.834Z,8.55
2022-12-07T16:05:17.104Z,5.10
2022-12-07T16:07:44.710Z,6.95
2022-12-07T16:10:12.045Z,5.47
2022-12-07T16:12:39.212Z,7.40
2022-12-07T16:15:07.122Z,8.57
2022-12-07T16:17:34.409Z,6.88
2022-12-07T16:20:02.386Z,5.35
2022-12-07T16:22:29.649Z,7.72
2022-12-07T16:24:56.764Z,7.15
2022-12-07T16:27:23.970Z,4.45
2022-12-07T16:29:51.060Z,8.75
2022-12-07T16:32:18.241Z,5.13
2022-12-07T16:34:45.417Z,4.97
2022-12-07T16:37:12.735Z,7.68
2022-12-07T16:39:39.940Z,7.43
2022-12-07T16:42:07.279Z,5.55
2022-12-07T16:44:34.522Z,7.47
2022-12-07T16:47:02.227Z,7.47
2022-12-07T16:49:29.644Z,8.60
2022-12-07T16:52:19.446Z,5.57
2022-12-07T16:54:43.991Z,6.93
2022-12-07T16:57:12.471Z,8.25
2022-12-07T16:59:41.349Z,5.68
2022-12-07T17:02:10.781Z,9.70
2022-12-07T17:04:40.514Z,6.88
2022-12-07T17:07:07.828Z,7.35
2022-12-07T17:09:36.030Z,6.32
2022-12-07T17:12:03.228Z,11.77
2022-12-07T17:14:49.188Z,6.88
2022-12-07T17:17:16.301Z,8.15
2022-12-07T17:19:43.555Z,8.15
2022-12-07T17:22:13.471Z,11.23
2022-12-07T17:24:41.012Z,9.63
2022-12-07T17:27:09.162Z,7.32
2022-12-07T17:29:36.435Z,10.25
2022-12-07T17:32:03.700Z,9.57
2022-12-07T17:34:30.903Z,9.98
2022-12-07T17:36:58.036Z,9.02
2022-12-07T17:39:25.537Z,7.13
2022-12-07T17:42:11.082Z,5.80
2022-12-07T17:44:38.151Z,6.82
2022-12-07T17:47:06.255Z,8.25
2022-12-07T17:49:33.528Z,7.32
2022-12-07T17:52:19.178Z,7.38
2022-12-07T17:54:46.371Z,8.15
2022-12-07T17:57:13.540Z,8.63
2022-12-07T17:59:40.677Z,9.35
2022-12-07T18:02:09.129Z,4.82
2022-12-07T18:04:36.362Z,7.50
2022-12-07T18:07:06.805Z,6.13
2022-12-07T18:09:34.036Z,6.00
2022-12-07T18:12:01.272Z,6.25
2022-12-07T18:14:28.499Z,5.15
2022-12-07T18:16:55.983Z,7.97
2022-12-07T18:19:23.270Z,8.45
2022-12-07T18:21:50.537Z,10.48
2022-12-07T18:24:18.311Z,10.13
2022-12-07T18:26:47.765Z,11.60
2022-12-07T18:29:16.763Z,8.65
2022-12-07T18:31:44.273Z,7.38
2022-12-07T18:34:12.999Z,8.68
2022-12-07T18:36:42.653Z,9.65
2022-12-07T18:39:10.169Z,10.60
2022-12-07T18:41:37.437Z,11.90
2022-12-07T18:44:05.581Z,7.82
2022-12-07T18:46:33.247Z,7.30
2022-12-07T18:49:00.738Z,8.02
2022-12-07T18:51:32.328Z,9.63
2022-12-07T18:54:01.139Z,7.97
2022-12-07T18:56:28.957Z,8.50
2022-12-07T18:59:16.250Z,8.40
2022-12-07T19:01:44.651Z,11.40
2022-12-07T19:04:12.360Z,6.85
2022-12-07T19:06:41.651Z,10.65
2022-12-07T19:09:08.952Z,9.88
2022-12-07T19:11:51.722Z,10.75
2022-12-07T19:14:26.783Z,9.05
2022-12-07T19:16:55.356Z,7.85
2022-12-07T19:19:23.933Z,9.40
2022-12-07T19:21:51.602Z,9.88
2022-12-07T19:24:23.102Z,8.25
2022-12-07T19:26:51.416Z,13.82
2022-12-07T19:29:18.562Z,17.02
2022-12-07T19:31:45.811Z,13.13
2022-12-07T19:34:13.922Z,12.60
2022-12-07T19:36:41.059Z,14.48
2022-12-07T19:39:14.361Z,23.40
2022-12-07T19:41:44.209Z,15.70
2022-12-07T19:44:14.763Z,15.52
2022-12-07T19:46:42.775Z,11.73
2022-12-07T19:49:10.117Z,12.52
2022-12-07T19:51:37.316Z,12.77
2022-12-07T19:54:04.690Z,13.27
2022-12-07T19:56:32.393Z,10.27
2022-12-07T19:59:01.317Z,14.05
2022-12-07T20:01:29.595Z,13.50
2022-12-07T20:03:57.577Z,14.43
2022-12-07T20:06:25.164Z,10.23
2022-12-07T20:08:52.561Z,10.68
2022-12-07T20:11:39.319Z,9.65
2022-12-07T20:14:07.829Z,13.75
2022-12-07T20:16:35.289Z,16.35
2022-12-07T20:19:02.989Z,14.75
2022-12-07T20:21:30.089Z,13.30
2022-12-07T20:23:59.943Z,13.90
2022-12-07T20:26:27.020Z,12.13
2022-12-07T20:28:54.212Z,13.18
2022-12-07T20:31:21.927Z,16.05
2022-12-07T20:33:50.221Z,12.38
2022-12-07T20:36:18.393Z,16.90
2022-12-07T20:38:46.333Z,14.40
2022-12-07T20:41:33.147Z,14.80
2022-12-07T20:44:00.646Z,14.32
2022-12-07T20:46:28.298Z,11.77
2022-12-07T20:48:55.808Z,12.10
2022-12-07T20:51:23.068Z,11.60
2022-12-07T20:53:50.288Z,11.15
2022-12-07T20:56:23.766Z,10.95
2022-12-07T20:58:51.017Z,12.48
2022-12-07T21:01:18.204Z,10.60
2022-12-07T21:03:45.863Z,11.07
2022-12-07T21:06:14.618Z,9.18
2022-12-07T21:08:45.897Z,9.15
2022-12-07T21:11:13.437Z,11.63
2022-12-07T21:13:40.877Z,10.98
2022-12-07T21:16:27.802Z,11.65
2022-12-07T21:18:56.032Z,9.38
2022-12-07T21:21:23.161Z,9.52
2022-12-07T21:23:56.754Z,6.85
2022-12-07T21:26:27.755Z,7.78
2022-12-07T21:28:55.240Z,9.82
2022-12-07T21:31:22.775Z,9.50
2022-12-07T21:33:50.352Z,11.32
2022-12-07T21:36:19.446Z,10.43
2022-12-07T21:38:46.862Z,8.05
2022-12-07T21:41:21.663Z,6.82
2022-12-07T21:43:49.204Z,7.05
2022-12-07T21:46:17.644Z,10.63
2022-12-07T21:48:49.707Z,13.18
2022-12-07T21:51:17.462Z,8.25
2022-12-07T21:53:44.571Z,7.63
2022-12-07T21:56:16.815Z,8.85
2022-12-07T21:58:43.996Z,6.93
2022-12-07T22:01:40.908Z,10.43
2022-12-07T22:04:09.537Z,5.70
2022-12-07T22:06:37.760Z,7.13
2022-12-07T22:09:05.782Z,8.40
2022-12-07T22:11:33.416Z,6.90
2022-12-07T22:14:19.055Z,8.98
2022-12-07T22:16:46.189Z,5.20
2022-12-07T22:19:13.493Z,8.95
2022-12-07T22:21:41.097Z,8.00
2022-12-07T22:24:08.354Z,5.13
2022-12-07T22:26:35.559Z,6.03
2022-12-07T22:29:02.899Z,8.57
2022-12-07T22:31:30.156Z,7.10
2022-12-07T22:33:57.688Z,7.03
2022-12-07T22:36:24.908Z,7.78
2022-12-07T22:38:52.005Z,7.32
2022-12-07T22:43:53.148Z,8.98
2022-12-07T22:46:20.665Z,11.38
2022-12-07T22:48:48.184Z,5.50
2022-12-07T22:51:29.197Z,8.50
2022-12-07T22:53:57.772Z,7.70
2022-12-07T22:56:24.968Z,8.80
2022-12-07T22:58:52.472Z,7.97
2022-12-07T23:01:20.479Z,8.70
2022-12-07T23:03:48.102Z,5.55
2022-12-07T23:06:20.435Z,8.60
2022-12-07T23:08:47.618Z,8.10
2022-12-07T23:11:38.273Z,6.47
2022-12-07T23:14:09.956Z,7.40
2022-12-07T23:16:37.189Z,8.65
2022-12-07T23:19:04.452Z,7.97
2022-12-07T23:21:31.831Z,7.30
2022-12-07T23:23:59.090Z,10.73
2022-12-07T23:26:26.602Z,7.85
2022-12-07T23:28:53.811Z,6.05
2022-12-07T23:31:21.547Z,7.43
2022-12-07T23:33:48.773Z,10.88
2022-12-07T23:36:20.540Z,5.15
2022-12-07T23:38:51.605Z,8.95
2022-12-07T23:41:21.288Z,6.82
2022-12-07T23:43:48.729Z,7.88
2022-12-07T23:46:17.484Z,7.60
2022-12-07T23:48:45.193Z,6.78
2022-12-07T23:51:13.223Z,5.85
2022-12-07T23:53:41.900Z,7.47
2022-12-07T23:56:12.517Z,5.88
2022-12-07T23:58:39.713Z,5.38
